sensor_id;sensor_type;location;lat;lon;timestamp;P1;durP1;ratioP1;P2;durP2;ratioP2
53253;SDS011;39148;53.332;6.922;2023-03-12T00:00:29;3.95;;;1.30;;
53253;SDS011;39148;53.332;6.922;2023-03-12T00:02:55;4.55;;;1.42;;
53253;SDS011;39148;53.332;6.922;2023-03-12T00:05:21;4.43;;;1.40;;
53253;SDS011;39148;53.332;6.922;2023-03-12T00:07:49;3.42;;;1.20;;
53253;SDS011;39148;53.332;6.922;2023-03-12T00:10:18;3.22;;;1.10;;
53253;SDS011;39148;53.332;6.922;2023-03-12T00:12:45;3.45;;;1.40;;
53253;SDS011;39148;53.332;6.922;2023-03-12T00:15:11;3.17;;;1.45;;
53253;SDS011;39148;53.332;6.922;2023-03-12T00:17:37;5.03;;;1.63;;
53253;SDS011;39148;53.332;6.922;2023-03-12T00:20:03;5.22;;;1.38;;
53253;SDS011;39148;53.332;6.922;2023-03-12T00:22:31;5.35;;;1.38;;
53253;SDS011;39148;53.332;6.922;2023-03-12T00:24:58;5.00;;;1.30;;
53253;SDS011;39148;53.332;6.922;2023-03-12T00:27:24;3.17;;;1.25;;
53253;SDS011;39148;53.332;6.922;2023-03-12T00:29:50;3.97;;;1.20;;
53253;SDS011;39148;53.332;6.922;2023-03-12T00:32:16;3.50;;;1.45;;
53253;SDS011;39148;53.332;6.922;2023-03-12T00:34:43;4.07;;;1.42;;
53253;SDS011;39148;53.332;6.922;2023-03-12T00:37:09;4.88;;;1.30;;
53253;SDS011;39148;53.332;6.922;2023-03-12T00:39:35;4.32;;;1.42;;
53253;SDS011;39148;53.332;6.922;2023-03-12T00:42:01;2.30;;;1.10;;
53253;SDS011;39148;53.332;6.922;2023-03-12T00:44:27;4.10;;;1.25;;
53253;SDS011;39148;53.332;6.922;2023-03-12T00:46:53;6.22;;;1.48;;
53253;SDS011;39148;53.332;6.922;2023-03-12T00:49:19;3.95;;;1.40;;
53253;SDS011;39148;53.332;6.922;2023-03-12T00:51:45;3.75;;;1.40;;
53253;SDS011;39148;53.332;6.922;2023-03-12T00:54:10;2.85;;;1.15;;
53253;SDS011;39148;53.332;6.922;2023-03-12T00:56:36;4.97;;;1.67;;
53253;SDS011;39148;53.332;6.922;2023-03-12T00:59:02;3.97;;;1.40;;
53253;SDS011;39148;53.332;6.922;2023-03-12T01:01:28;4.20;;;1.60;;
53253;SDS011;39148;53.332;6.922;2023-03-12T01:03:54;2.80;;;1.23;;
53253;SDS011;39148;53.332;6.922;2023-03-12T01:06:21;4.07;;;1.35;;
53253;SDS011;39148;53.332;6.922;2023-03-12T01:08:47;5.70;;;1.83;;
53253;SDS011;39148;53.332;6.922;2023-03-12T01:11:13;4.53;;;1.52;;
53253;SDS011;39148;53.332;6.922;2023-03-12T01:13:40;4.18;;;1.45;;
53253;SDS011;39148;53.332;6.922;2023-03-12T01:16:06;4.93;;;1.60;;
53253;SDS011;39148;53.332;6.922;2023-03-12T01:18:32;5.43;;;1.40;;
53253;SDS011;39148;53.332;6.922;2023-03-12T01:20:58;3.63;;;1.23;;
53253;SDS011;39148;53.332;6.922;2023-03-12T01:23:24;5.20;;;1.60;;
53253;SDS011;39148;53.332;6.922;2023-03-12T01:25:50;3.08;;;1.10;;
53253;SDS011;39148;53.332;6.922;2023-03-12T01:28:19;3.42;;;1.30;;
53253;SDS011;39148;53.332;6.922;2023-03-12T01:30:45;4.38;;;1.67;;
53253;SDS011;39148;53.332;6.922;2023-03-12T01:33:11;2.97;;;1.27;;
53253;SDS011;39148;53.332;6.922;2023-03-12T01:35:38;4.10;;;1.42;;
53253;SDS011;39148;53.332;6.922;2023-03-12T01:38:05;3.47;;;1.40;;
53253;SDS011;39148;53.332;6.922;2023-03-12T01:40:33;3.65;;;1.35;;
53253;SDS011;39148;53.332;6.922;2023-03-12T01:43:12;3.13;;;1.20;;
53253;SDS011;39148;53.332;6.922;2023-03-12T01:48:24;5.75;;;1.45;;
53253;SDS011;39148;53.332;6.922;2023-03-12T01:50:51;3.80;;;1.40;;
53253;SDS011;39148;53.332;6.922;2023-03-12T01:53:18;4.25;;;1.40;;
53253;SDS011;39148;53.332;6.922;2023-03-12T01:55:44;3.35;;;1.48;;
53253;SDS011;39148;53.332;6.922;2023-03-12T01:58:09;3.72;;;1.33;;
53253;SDS011;39148;53.332;6.922;2023-03-12T02:00:35;5.03;;;1.58;;
53253;SDS011;39148;53.332;6.922;2023-03-12T02:03:03;2.95;;;1.30;;
53253;SDS011;39148;53.332;6.922;2023-03-12T02:07:57;3.85;;;1.50;;
53253;SDS011;39148;53.332;6.922;2023-03-12T02:10:23;3.67;;;1.13;;
53253;SDS011;39148;53.332;6.922;2023-03-12T02:12:49;4.53;;;1.55;;
53253;SDS011;39148;53.332;6.922;2023-03-12T02:15:16;4.40;;;1.40;;
53253;SDS011;39148;53.332;6.922;2023-03-12T02:17:42;3.90;;;1.33;;
53253;SDS011;39148;53.332;6.922;2023-03-12T02:22:35;3.88;;;1.30;;
53253;SDS011;39148;53.332;6.922;2023-03-12T02:25:17;3.20;;;1.27;;
53253;SDS011;39148;53.332;6.922;2023-03-12T02:27:44;3.95;;;1.80;;
53253;SDS011;39148;53.332;6.922;2023-03-12T02:30:11;4.35;;;1.60;;
53253;SDS011;39148;53.332;6.922;2023-03-12T02:32:40;2.97;;;1.23;;
53253;SDS011;39148;53.332;6.922;2023-03-12T02:35:07;4.45;;;1.77;;
53253;SDS011;39148;53.332;6.922;2023-03-12T02:37:33;6.82;;;1.83;;
53253;SDS011;39148;53.332;6.922;2023-03-12T02:40:02;3.22;;;1.40;;
53253;SDS011;39148;53.332;6.922;2023-03-12T02:42:30;5.25;;;1.60;;
53253;SDS011;39148;53.332;6.922;2023-03-12T02:44:57;3.22;;;1.40;;
53253;SDS011;39148;53.332;6.922;2023-03-12T02:47:23;3.90;;;1.45;;
53253;SDS011;39148;53.332;6.922;2023-03-12T02:49:49;3.40;;;1.40;;
53253;SDS011;39148;53.332;6.922;2023-03-12T02:52:15;3.05;;;1.30;;
53253;SDS011;39148;53.332;6.922;2023-03-12T02:54:41;3.70;;;1.30;;
53253;SDS011;39148;53.332;6.922;2023-03-12T02:57:07;6.45;;;1.40;;
53253;SDS011;39148;53.332;6.922;2023-03-12T02:59:33;3.75;;;1.73;;
53253;SDS011;39148;53.332;6.922;2023-03-12T03:01:59;4.35;;;1.40;;
53253;SDS011;39148;53.332;6.922;2023-03-12T03:04:26;3.10;;;1.40;;
53253;SDS011;39148;53.332;6.922;2023-03-12T03:06:53;4.70;;;1.55;;
53253;SDS011;39148;53.332;6.922;2023-03-12T03:09:19;4.50;;;1.70;;
53253;SDS011;39148;53.332;6.922;2023-03-12T03:11:46;3.28;;;1.25;;
53253;SDS011;39148;53.332;6.922;2023-03-12T03:14:13;4.65;;;1.40;;
53253;SDS011;39148;53.332;6.922;2023-03-12T03:16:39;2.95;;;1.20;;
53253;SDS011;39148;53.332;6.922;2023-03-12T03:19:05;4.07;;;1.30;;
53253;SDS011;39148;53.332;6.922;2023-03-12T03:21:31;2.92;;;1.30;;
53253;SDS011;39148;53.332;6.922;2023-03-12T03:23:58;4.82;;;1.23;;
53253;SDS011;39148;53.332;6.922;2023-03-12T03:26:24;2.92;;;1.27;;
53253;SDS011;39148;53.332;6.922;2023-03-12T03:28:50;3.55;;;1.40;;
53253;SDS011;39148;53.332;6.922;2023-03-12T03:31:16;3.08;;;1.48;;
53253;SDS011;39148;53.332;6.922;2023-03-12T03:33:42;2.65;;;1.40;;
53253;SDS011;39148;53.332;6.922;2023-03-12T03:36:09;3.72;;;1.40;;
53253;SDS011;39148;53.332;6.922;2023-03-12T03:38:35;2.55;;;1.00;;
53253;SDS011;39148;53.332;6.922;2023-03-12T03:41:01;3.22;;;1.40;;
53253;SDS011;39148;53.332;6.922;2023-03-12T03:43:28;3.47;;;1.40;;
53253;SDS011;39148;53.332;6.922;2023-03-12T03:45:58;3.58;;;1.38;;
53253;SDS011;39148;53.332;6.922;2023-03-12T03:48:24;3.10;;;1.27;;
53253;SDS011;39148;53.332;6.922;2023-03-12T03:50:50;3.88;;;1.35;;
53253;SDS011;39148;53.332;6.922;2023-03-12T03:53:17;3.67;;;1.33;;
53253;SDS011;39148;53.332;6.922;2023-03-12T03:55:44;3.60;;;1.48;;
53253;SDS011;39148;53.332;6.922;2023-03-12T03:58:10;2.65;;;1.13;;
53253;SDS011;39148;53.332;6.922;2023-03-12T04:00:37;3.33;;;1.33;;
53253;SDS011;39148;53.332;6.922;2023-03-12T04:03:03;2.90;;;1.17;;
53253;SDS011;39148;53.332;6.922;2023-03-12T04:05:29;4.30;;;1.33;;
53253;SDS011;39148;53.332;6.922;2023-03-12T04:07:56;2.90;;;1.10;;
53253;SDS011;39148;53.332;6.922;2023-03-12T04:10:27;2.22;;;1.10;;
53253;SDS011;39148;53.332;6.922;2023-03-12T04:12:53;4.22;;;1.40;;
53253;SDS011;39148;53.332;6.922;2023-03-12T04:15:20;4.28;;;1.50;;
53253;SDS011;39148;53.332;6.922;2023-03-12T04:17:46;3.72;;;1.30;;
53253;SDS011;39148;53.332;6.922;2023-03-12T04:20:12;3.65;;;1.33;;
53253;SDS011;39148;53.332;6.922;2023-03-12T04:22:38;3.88;;;1.20;;
53253;SDS011;39148;53.332;6.922;2023-03-12T04:25:05;4.07;;;1.48;;
53253;SDS011;39148;53.332;6.922;2023-03-12T04:27:31;2.92;;;1.23;;
53253;SDS011;39148;53.332;6.922;2023-03-12T04:29:58;2.45;;;1.20;;
53253;SDS011;39148;53.332;6.922;2023-03-12T04:32:24;4.68;;;1.30;;
53253;SDS011;39148;53.332;6.922;2023-03-12T04:34:50;2.92;;;1.10;;
53253;SDS011;39148;53.332;6.922;2023-03-12T04:37:16;4.15;;;1.50;;
53253;SDS011;39148;53.332;6.922;2023-03-12T04:39:42;3.55;;;1.13;;
53253;SDS011;39148;53.332;6.922;2023-03-12T04:42:08;3.75;;;1.38;;
53253;SDS011;39148;53.332;6.922;2023-03-12T04:44:34;3.95;;;1.25;;
53253;SDS011;39148;53.332;6.922;2023-03-12T04:47:01;3.95;;;1.60;;
53253;SDS011;39148;53.332;6.922;2023-03-12T04:49:27;2.95;;;1.30;;
53253;SDS011;39148;53.332;6.922;2023-03-12T04:51:53;4.28;;;1.20;;
53253;SDS011;39148;53.332;6.922;2023-03-12T04:54:19;4.70;;;1.20;;
53253;SDS011;39148;53.332;6.922;2023-03-12T04:56:46;2.83;;;1.10;;
53253;SDS011;39148;53.332;6.922;2023-03-12T04:59:13;3.92;;;1.42;;
53253;SDS011;39148;53.332;6.922;2023-03-12T05:01:39;2.88;;;1.30;;
53253;SDS011;39148;53.332;6.922;2023-03-12T05:04:05;3.42;;;1.20;;
53253;SDS011;39148;53.332;6.922;2023-03-12T05:06:31;5.32;;;1.60;;
53253;SDS011;39148;53.332;6.922;2023-03-12T05:08:57;5.28;;;1.67;;
53253;SDS011;39148;53.332;6.922;2023-03-12T05:11:23;3.92;;;1.20;;
53253;SDS011;39148;53.332;6.922;2023-03-12T05:13:49;4.55;;;1.50;;
53253;SDS011;39148;53.332;6.922;2023-03-12T05:16:15;3.45;;;1.48;;
53253;SDS011;39148;53.332;6.922;2023-03-12T05:18:42;2.45;;;1.10;;
53253;SDS011;39148;53.332;6.922;2023-03-12T05:21:16;4.00;;;1.40;;
53253;SDS011;39148;53.332;6.922;2023-03-12T05:23:43;2.40;;;1.27;;
53253;SDS011;39148;53.332;6.922;2023-03-12T05:26:18;3.58;;;1.30;;
53253;SDS011;39148;53.332;6.922;2023-03-12T05:28:45;4.97;;;1.30;;
53253;SDS011;39148;53.332;6.922;2023-03-12T05:31:11;3.92;;;1.42;;
53253;SDS011;39148;53.332;6.922;2023-03-12T05:33:38;3.60;;;1.30;;
53253;SDS011;39148;53.332;6.922;2023-03-12T05:36:04;4.43;;;1.60;;
53253;SDS011;39148;53.332;6.922;2023-03-12T05:38:30;4.05;;;1.40;;
53253;SDS011;39148;53.332;6.922;2023-03-12T05:40:56;4.00;;;1.30;;
53253;SDS011;39148;53.332;6.922;2023-03-12T05:43:26;4.03;;;1.27;;
53253;SDS011;39148;53.332;6.922;2023-03-12T05:45:52;2.65;;;1.27;;
53253;SDS011;39148;53.332;6.922;2023-03-12T05:48:18;3.92;;;1.55;;
53253;SDS011;39148;53.332;6.922;2023-03-12T05:50:44;3.10;;;1.50;;
53253;SDS011;39148;53.332;6.922;2023-03-12T05:53:11;3.55;;;1.30;;
53253;SDS011;39148;53.332;6.922;2023-03-12T05:55:37;3.95;;;1.55;;
53253;SDS011;39148;53.332;6.922;2023-03-12T05:58:04;4.68;;;1.83;;
53253;SDS011;39148;53.332;6.922;2023-03-12T06:00:31;4.47;;;1.70;;
53253;SDS011;39148;53.332;6.922;2023-03-12T06:02:57;3.50;;;1.42;;
53253;SDS011;39148;53.332;6.922;2023-03-12T06:05:23;3.38;;;1.30;;
53253;SDS011;39148;53.332;6.922;2023-03-12T06:07:49;4.60;;;1.67;;
53253;SDS011;39148;53.332;6.922;2023-03-12T06:10:15;3.17;;;1.45;;
53253;SDS011;39148;53.332;6.922;2023-03-12T06:12:41;4.15;;;1.75;;
53253;SDS011;39148;53.332;6.922;2023-03-12T06:15:07;3.55;;;1.58;;
53253;SDS011;39148;53.332;6.922;2023-03-12T06:17:34;3.80;;;1.52;;
53253;SDS011;39148;53.332;6.922;2023-03-12T06:20:02;3.30;;;1.50;;
53253;SDS011;39148;53.332;6.922;2023-03-12T06:22:28;5.28;;;1.83;;
53253;SDS011;39148;53.332;6.922;2023-03-12T06:24:54;3.65;;;1.60;;
53253;SDS011;39148;53.332;6.922;2023-03-12T06:27:20;3.78;;;1.63;;
53253;SDS011;39148;53.332;6.922;2023-03-12T06:29:46;4.40;;;2.10;;
53253;SDS011;39148;53.332;6.922;2023-03-12T06:32:12;4.55;;;1.67;;
53253;SDS011;39148;53.332;6.922;2023-03-12T06:34:39;3.85;;;1.50;;
53253;SDS011;39148;53.332;6.922;2023-03-12T06:37:04;4.05;;;1.73;;
53253;SDS011;39148;53.332;6.922;2023-03-12T06:39:30;4.68;;;1.85;;
53253;SDS011;39148;53.332;6.922;2023-03-12T06:41:56;4.32;;;1.90;;
53253;SDS011;39148;53.332;6.922;2023-03-12T06:44:22;2.95;;;1.40;;
53253;SDS011;39148;53.332;6.922;2023-03-12T06:46:48;4.25;;;1.75;;
53253;SDS011;39148;53.332;6.922;2023-03-12T06:49:14;4.72;;;1.80;;
53253;SDS011;39148;53.332;6.922;2023-03-12T06:51:40;4.05;;;1.73;;
53253;SDS011;39148;53.332;6.922;2023-03-12T06:54:06;4.38;;;1.80;;
53253;SDS011;39148;53.332;6.922;2023-03-12T06:56:32;4.40;;;2.20;;
53253;SDS011;39148;53.332;6.922;2023-03-12T06:58:59;4.55;;;1.80;;
53253;SDS011;39148;53.332;6.922;2023-03-12T07:01:25;4.57;;;1.80;;
53253;SDS011;39148;53.332;6.922;2023-03-12T07:03:51;4.28;;;2.00;;
53253;SDS011;39148;53.332;6.922;2023-03-12T07:06:19;5.50;;;2.30;;
53253;SDS011;39148;53.332;6.922;2023-03-12T07:08:46;5.40;;;2.13;;
53253;SDS011;39148;53.332;6.922;2023-03-12T07:11:12;4.85;;;2.13;;
53253;SDS011;39148;53.332;6.922;2023-03-12T07:13:39;3.92;;;1.77;;
53253;SDS011;39148;53.332;6.922;2023-03-12T07:16:05;5.82;;;2.00;;
53253;SDS011;39148;53.332;6.922;2023-03-12T07:18:31;5.20;;;2.10;;
53253;SDS011;39148;53.332;6.922;2023-03-12T07:20:58;4.05;;;1.80;;
53253;SDS011;39148;53.332;6.922;2023-03-12T07:23:24;5.55;;;2.30;;
53253;SDS011;39148;53.332;6.922;2023-03-12T07:25:51;3.80;;;2.00;;
53253;SDS011;39148;53.332;6.922;2023-03-12T07:28:17;4.90;;;2.28;;
53253;SDS011;39148;53.332;6.922;2023-03-12T07:30:43;5.15;;;2.10;;
53253;SDS011;39148;53.332;6.922;2023-03-12T07:33:14;7.27;;;2.30;;
53253;SDS011;39148;53.332;6.922;2023-03-12T07:35:41;4.43;;;2.00;;
53253;SDS011;39148;53.332;6.922;2023-03-12T07:38:07;5.30;;;2.15;;
53253;SDS011;39148;53.332;6.922;2023-03-12T07:40:33;5.07;;;2.35;;
53253;SDS011;39148;53.332;6.922;2023-03-12T07:43:00;6.88;;;2.60;;
53253;SDS011;39148;53.332;6.922;2023-03-12T07:45:25;4.97;;;2.15;;
53253;SDS011;39148;53.332;6.922;2023-03-12T07:47:52;5.05;;;2.40;;
53253;SDS011;39148;53.332;6.922;2023-03-12T07:50:18;4.68;;;2.25;;
53253;SDS011;39148;53.332;6.922;2023-03-12T07:52:44;5.75;;;2.30;;
53253;SDS011;39148;53.332;6.922;2023-03-12T07:55:11;5.22;;;2.38;;
53253;SDS011;39148;53.332;6.922;2023-03-12T07:57:37;5.55;;;2.40;;
53253;SDS011;39148;53.332;6.922;2023-03-12T08:00:03;6.35;;;3.10;;
53253;SDS011;39148;53.332;6.922;2023-03-12T08:02:31;5.65;;;2.40;;
53253;SDS011;39148;53.332;6.922;2023-03-12T08:04:58;6.50;;;2.15;;
53253;SDS011;39148;53.332;6.922;2023-03-12T08:07:24;5.18;;;2.30;;
53253;SDS011;39148;53.332;6.922;2023-03-12T08:09:52;4.93;;;2.20;;
53253;SDS011;39148;53.332;6.922;2023-03-12T08:12:18;5.10;;;2.28;;
53253;SDS011;39148;53.332;6.922;2023-03-12T08:14:44;5.13;;;2.60;;
53253;SDS011;39148;53.332;6.922;2023-03-12T08:17:10;5.80;;;2.40;;
53253;SDS011;39148;53.332;6.922;2023-03-12T08:19:37;5.03;;;2.50;;
53253;SDS011;39148;53.332;6.922;2023-03-12T08:22:03;6.70;;;2.30;;
53253;SDS011;39148;53.332;6.922;2023-03-12T08:24:30;5.75;;;2.72;;
53253;SDS011;39148;53.332;6.922;2023-03-12T08:26:56;7.25;;;2.63;;
53253;SDS011;39148;53.332;6.922;2023-03-12T08:29:22;5.15;;;2.70;;
53253;SDS011;39148;53.332;6.922;2023-03-12T08:31:47;6.05;;;2.58;;
53253;SDS011;39148;53.332;6.922;2023-03-12T08:34:13;5.65;;;2.70;;
53253;SDS011;39148;53.332;6.922;2023-03-12T08:36:39;4.63;;;2.22;;
53253;SDS011;39148;53.332;6.922;2023-03-12T08:39:05;7.30;;;2.50;;
53253;SDS011;39148;53.332;6.922;2023-03-12T08:41:32;7.30;;;3.03;;
53253;SDS011;39148;53.332;6.922;2023-03-12T08:43:57;4.90;;;2.47;;
53253;SDS011;39148;53.332;6.922;2023-03-12T08:46:23;5.55;;;2.70;;
53253;SDS011;39148;53.332;6.922;2023-03-12T08:48:49;6.47;;;2.83;;
53253;SDS011;39148;53.332;6.922;2023-03-12T08:51:16;7.40;;;2.63;;
53253;SDS011;39148;53.332;6.922;2023-03-12T08:53:42;7.50;;;3.05;;
53253;SDS011;39148;53.332;6.922;2023-03-12T08:56:09;4.78;;;2.33;;
53253;SDS011;39148;53.332;6.922;2023-03-12T08:58:35;4.65;;;2.50;;
53253;SDS011;39148;53.332;6.922;2023-03-12T09:01:06;5.20;;;2.38;;
53253;SDS011;39148;53.332;6.922;2023-03-12T09:03:32;5.45;;;2.67;;
53253;SDS011;39148;53.332;6.922;2023-03-12T09:06:02;6.43;;;3.10;;
53253;SDS011;39148;53.332;6.922;2023-03-12T09:08:29;6.45;;;2.95;;
53253;SDS011;39148;53.332;6.922;2023-03-12T09:10:58;6.20;;;2.83;;
53253;SDS011;39148;53.332;6.922;2023-03-12T09:13:25;6.78;;;2.60;;
53253;SDS011;39148;53.332;6.922;2023-03-12T09:15:51;6.80;;;2.63;;
53253;SDS011;39148;53.332;6.922;2023-03-12T09:18:17;5.40;;;2.72;;
53253;SDS011;39148;53.332;6.922;2023-03-12T09:20:44;5.03;;;2.50;;
53253;SDS011;39148;53.332;6.922;2023-03-12T09:23:10;4.53;;;2.40;;
53253;SDS011;39148;53.332;6.922;2023-03-12T09:25:36;5.07;;;2.50;;
53253;SDS011;39148;53.332;6.922;2023-03-12T09:28:02;5.72;;;2.85;;
53253;SDS011;39148;53.332;6.922;2023-03-12T09:30:28;4.55;;;2.33;;
53253;SDS011;39148;53.332;6.922;2023-03-12T09:32:56;5.68;;;2.75;;
53253;SDS011;39148;53.332;6.922;2023-03-12T09:35:22;5.55;;;3.08;;
53253;SDS011;39148;53.332;6.922;2023-03-12T09:37:48;4.85;;;2.58;;
53253;SDS011;39148;53.332;6.922;2023-03-12T09:40:16;4.50;;;2.38;;
53253;SDS011;39148;53.332;6.922;2023-03-12T09:42:49;6.82;;;2.85;;
53253;SDS011;39148;53.332;6.922;2023-03-12T09:45:23;5.72;;;2.80;;
53253;SDS011;39148;53.332;6.922;2023-03-12T09:47:51;6.13;;;2.50;;
53253;SDS011;39148;53.332;6.922;2023-03-12T09:52:47;5.10;;;2.70;;
53253;SDS011;39148;53.332;6.922;2023-03-12T09:55:21;5.85;;;2.55;;
53253;SDS011;39148;53.332;6.922;2023-03-12T09:57:48;4.57;;;2.45;;
53253;SDS011;39148;53.332;6.922;2023-03-12T10:00:19;4.97;;;2.50;;
53253;SDS011;39148;53.332;6.922;2023-03-12T10:10:35;6.15;;;3.05;;
53253;SDS011;39148;53.332;6.922;2023-03-12T10:28:41;7.28;;;3.15;;
53253;SDS011;39148;53.332;6.922;2023-03-12T10:31:20;5.18;;;2.75;;
53253;SDS011;39148;53.332;6.922;2023-03-12T10:33:51;5.45;;;2.90;;
53253;SDS011;39148;53.332;6.922;2023-03-12T10:36:22;4.97;;;2.92;;
53253;SDS011;39148;53.332;6.922;2023-03-12T10:38:48;6.00;;;2.90;;
53253;SDS011;39148;53.332;6.922;2023-03-12T10:41:19;6.15;;;2.95;;
53253;SDS011;39148;53.332;6.922;2023-03-12T10:43:47;4.88;;;2.88;;
53253;SDS011;39148;53.332;6.922;2023-03-12T10:48:39;6.60;;;3.00;;
53253;SDS011;39148;53.332;6.922;2023-03-12T10:51:06;4.53;;;2.92;;
53253;SDS011;39148;53.332;6.922;2023-03-12T10:53:42;5.13;;;3.03;;
53253;SDS011;39148;53.332;6.922;2023-03-12T10:58:42;5.20;;;2.85;;
53253;SDS011;39148;53.332;6.922;2023-03-12T11:03:37;8.05;;;3.47;;
53253;SDS011;39148;53.332;6.922;2023-03-12T11:06:03;5.35;;;3.15;;
53253;SDS011;39148;53.332;6.922;2023-03-12T11:08:33;6.57;;;2.97;;
53253;SDS011;39148;53.332;6.922;2023-03-12T11:10:59;5.28;;;3.10;;
53253;SDS011;39148;53.332;6.922;2023-03-12T11:15:57;5.55;;;3.22;;
53253;SDS011;39148;53.332;6.922;2023-03-12T11:20:55;5.10;;;3.08;;
53253;SDS011;39148;53.332;6.922;2023-03-12T11:23:24;5.20;;;3.15;;
53253;SDS011;39148;53.332;6.922;2023-03-12T11:25:51;5.50;;;3.28;;
53253;SDS011;39148;53.332;6.922;2023-03-12T11:28:20;4.70;;;3.15;;
53253;SDS011;39148;53.332;6.922;2023-03-12T11:30:49;5.03;;;3.28;;
53253;SDS011;39148;53.332;6.922;2023-03-12T11:33:16;5.72;;;2.90;;
53253;SDS011;39148;53.332;6.922;2023-03-12T11:35:57;5.13;;;3.10;;
53253;SDS011;39148;53.332;6.922;2023-03-12T11:38:38;4.93;;;2.85;;
53253;SDS011;39148;53.332;6.922;2023-03-12T11:41:13;4.57;;;2.72;;
53253;SDS011;39148;53.332;6.922;2023-03-12T11:51:41;5.25;;;3.20;;
53253;SDS011;39148;53.332;6.922;2023-03-12T11:56:46;5.93;;;3.17;;
53253;SDS011;39148;53.332;6.922;2023-03-12T12:02:19;5.47;;;3.13;;
53253;SDS011;39148;53.332;6.922;2023-03-12T12:10:37;5.75;;;3.08;;
53253;SDS011;39148;53.332;6.922;2023-03-12T12:13:12;6.32;;;3.42;;
53253;SDS011;39148;53.332;6.922;2023-03-12T12:21:28;5.80;;;3.35;;
53253;SDS011;39148;53.332;6.922;2023-03-12T12:29:17;6.00;;;3.17;;
53253;SDS011;39148;53.332;6.922;2023-03-12T12:31:53;5.40;;;3.25;;
53253;SDS011;39148;53.332;6.922;2023-03-12T12:40:03;5.05;;;3.20;;
53253;SDS011;39148;53.332;6.922;2023-03-12T12:42:33;5.60;;;3.25;;
53253;SDS011;39148;53.332;6.922;2023-03-12T12:45:09;4.95;;;3.20;;
53253;SDS011;39148;53.332;6.922;2023-03-12T12:47:49;5.53;;;3.17;;
53253;SDS011;39148;53.332;6.922;2023-03-12T12:50:20;4.97;;;3.08;;
53253;SDS011;39148;53.332;6.922;2023-03-12T12:52:51;5.82;;;3.55;;
53253;SDS011;39148;53.332;6.922;2023-03-12T12:55:28;5.15;;;3.20;;
53253;SDS011;39148;53.332;6.922;2023-03-12T12:57:58;4.88;;;3.03;;
53253;SDS011;39148;53.332;6.922;2023-03-12T13:00:41;5.38;;;3.55;;
53253;SDS011;39148;53.332;6.922;2023-03-12T13:03:12;5.95;;;3.60;;
53253;SDS011;39148;53.332;6.922;2023-03-12T13:05:52;6.43;;;3.20;;
53253;SDS011;39148;53.332;6.922;2023-03-12T13:11:04;4.93;;;2.95;;
53253;SDS011;39148;53.332;6.922;2023-03-12T13:13:31;5.65;;;3.42;;
53253;SDS011;39148;53.332;6.922;2023-03-12T13:18:44;5.60;;;3.58;;
53253;SDS011;39148;53.332;6.922;2023-03-12T13:21:44;6.15;;;3.67;;
53253;SDS011;39148;53.332;6.922;2023-03-12T13:31:40;4.50;;;2.92;;
53253;SDS011;39148;53.332;6.922;2023-03-12T13:34:25;5.22;;;3.10;;
53253;SDS011;39148;53.332;6.922;2023-03-12T13:36:56;5.13;;;3.08;;
53253;SDS011;39148;53.332;6.922;2023-03-12T13:39:28;4.90;;;3.00;;
53253;SDS011;39148;53.332;6.922;2023-03-12T13:41:56;5.55;;;3.40;;
53253;SDS011;39148;53.332;6.922;2023-03-12T13:47:14;5.75;;;3.55;;
53253;SDS011;39148;53.332;6.922;2023-03-12T13:49:43;6.28;;;3.42;;
53253;SDS011;39148;53.332;6.922;2023-03-12T13:52:17;5.07;;;3.30;;
53253;SDS011;39148;53.332;6.922;2023-03-12T13:54:48;4.95;;;3.05;;
53253;SDS011;39148;53.332;6.922;2023-03-12T13:59:47;5.13;;;3.10;;
53253;SDS011;39148;53.332;6.922;2023-03-12T14:02:20;6.10;;;3.20;;
53253;SDS011;39148;53.332;6.922;2023-03-12T14:04:48;6.43;;;3.20;;
53253;SDS011;39148;53.332;6.922;2023-03-12T14:15:07;5.70;;;3.20;;
53253;SDS011;39148;53.332;6.922;2023-03-12T14:17:35;5.03;;;2.95;;
53253;SDS011;39148;53.332;6.922;2023-03-12T14:22:37;4.38;;;2.55;;
53253;SDS011;39148;53.332;6.922;2023-03-12T14:25:05;5.22;;;3.08;;
53253;SDS011;39148;53.332;6.922;2023-03-12T14:27:37;5.40;;;3.20;;
53253;SDS011;39148;53.332;6.922;2023-03-12T14:35:21;5.13;;;2.70;;
53253;SDS011;39148;53.332;6.922;2023-03-12T14:40:39;6.60;;;3.03;;
53253;SDS011;39148;53.332;6.922;2023-03-12T14:43:22;6.67;;;3.07;;
53253;SDS011;39148;53.332;6.922;2023-03-12T14:45:48;5.03;;;2.67;;
53253;SDS011;39148;53.332;6.922;2023-03-12T14:48:19;5.93;;;2.90;;
53253;SDS011;39148;53.332;6.922;2023-03-12T14:50:45;7.20;;;2.83;;
53253;SDS011;39148;53.332;6.922;2023-03-12T14:53:19;7.28;;;2.88;;
53253;SDS011;39148;53.332;6.922;2023-03-12T14:55:58;7.82;;;2.85;;
53253;SDS011;39148;53.332;6.922;2023-03-12T14:58:24;5.97;;;2.67;;
53253;SDS011;39148;53.332;6.922;2023-03-12T15:00:58;6.78;;;2.83;;
53253;SDS011;39148;53.332;6.922;2023-03-12T15:03:25;8.07;;;2.60;;
53253;SDS011;39148;53.332;6.922;2023-03-12T15:05:51;6.78;;;2.88;;
53253;SDS011;39148;53.332;6.922;2023-03-12T15:08:17;9.82;;;3.17;;
53253;SDS011;39148;53.332;6.922;2023-03-12T15:10:48;7.93;;;2.90;;
53253;SDS011;39148;53.332;6.922;2023-03-12T15:13:14;8.30;;;2.58;;
53253;SDS011;39148;53.332;6.922;2023-03-12T15:15:44;6.78;;;2.50;;
53253;SDS011;39148;53.332;6.922;2023-03-12T15:18:22;10.32;;;2.80;;
53253;SDS011;39148;53.332;6.922;2023-03-12T15:20:49;10.45;;;2.92;;
53253;SDS011;39148;53.332;6.922;2023-03-12T15:23:18;10.57;;;3.00;;
53253;SDS011;39148;53.332;6.922;2023-03-12T15:25:44;13.18;;;3.00;;
53253;SDS011;39148;53.332;6.922;2023-03-12T15:30:37;10.63;;;2.78;;
53253;SDS011;39148;53.332;6.922;2023-03-12T15:35:29;10.00;;;2.65;;
53253;SDS011;39148;53.332;6.922;2023-03-12T15:37:56;10.70;;;2.95;;
53253;SDS011;39148;53.332;6.922;2023-03-12T15:40:23;14.93;;;2.70;;
53253;SDS011;39148;53.332;6.922;2023-03-12T15:42:50;16.60;;;3.22;;
53253;SDS011;39148;53.332;6.922;2023-03-12T15:45:17;13.63;;;2.67;;
53253;SDS011;39148;53.332;6.922;2023-03-12T15:47:44;11.63;;;2.97;;
53253;SDS011;39148;53.332;6.922;2023-03-12T15:50:15;15.90;;;3.55;;
53253;SDS011;39148;53.332;6.922;2023-03-12T15:52:56;14.60;;;3.20;;
53253;SDS011;39148;53.332;6.922;2023-03-12T15:55:23;12.98;;;3.00;;
53253;SDS011;39148;53.332;6.922;2023-03-12T15:57:53;13.02;;;2.75;;
53253;SDS011;39148;53.332;6.922;2023-03-12T16:00:21;15.73;;;3.00;;
53253;SDS011;39148;53.332;6.922;2023-03-12T16:02:51;12.63;;;2.85;;
53253;SDS011;39148;53.332;6.922;2023-03-12T16:05:18;12.52;;;3.00;;
53253;SDS011;39148;53.332;6.922;2023-03-12T16:07:46;20.50;;;3.70;;
53253;SDS011;39148;53.332;6.922;2023-03-12T16:10:13;19.00;;;3.15;;
53253;SDS011;39148;53.332;6.922;2023-03-12T16:12:40;15.73;;;3.42;;
53253;SDS011;39148;53.332;6.922;2023-03-12T16:15:11;16.48;;;3.45;;
53253;SDS011;39148;53.332;6.922;2023-03-12T16:17:37;16.67;;;3.38;;
53253;SDS011;39148;53.332;6.922;2023-03-12T16:20:03;12.00;;;2.80;;
53253;SDS011;39148;53.332;6.922;2023-03-12T16:22:30;12.82;;;3.38;;
53253;SDS011;39148;53.332;6.922;2023-03-12T16:24:55;12.48;;;3.10;;
53253;SDS011;39148;53.332;6.922;2023-03-12T16:27:21;18.30;;;3.20;;
53253;SDS011;39148;53.332;6.922;2023-03-12T16:29:47;17.30;;;3.25;;
53253;SDS011;39148;53.332;6.922;2023-03-12T16:32:14;13.77;;;3.08;;
53253;SDS011;39148;53.332;6.922;2023-03-12T16:34:41;15.60;;;3.25;;
53253;SDS011;39148;53.332;6.922;2023-03-12T16:37:11;14.27;;;2.60;;
53253;SDS011;39148;53.332;6.922;2023-03-12T16:39:37;16.90;;;4.25;;
53253;SDS011;39148;53.332;6.922;2023-03-12T16:42:04;18.15;;;4.07;;
53253;SDS011;39148;53.332;6.922;2023-03-12T16:44:35;16.05;;;3.53;;
53253;SDS011;39148;53.332;6.922;2023-03-12T16:47:01;20.85;;;4.72;;
53253;SDS011;39148;53.332;6.922;2023-03-12T16:49:27;18.40;;;3.50;;
53253;SDS011;39148;53.332;6.922;2023-03-12T16:51:53;16.58;;;3.03;;